Time;durP1;ratioP1;P1;durP2;ratioP2;P2;SDS_P1;SDS_P2;PMS_P1;PMS_P2;Temp;Humidity;BMP_temperature;BMP_pressure;BME280_temperature;BME280_humidity;BME280_pressure;Samples;Min_cycle;Max_cycle;Signal;HPM_P1;HPM_P2
2022/08/22 00:01:24;;;;;;;8.27;3.42;;;;;;;17.58;66.22;99587.28;5053897;28;20055;-70
2022/08/22 00:04:03;;;;;;;11.15;3.72;;;;;;;17.56;66.44;99591.88;5051110;28;20480;-70
2022/08/22 00:06:39;;;;;;;9.45;3.25;;;;;;;17.54;66.54;99593.81;5049116;28;20060;-69
2022/08/22 00:09:23;;;;;;;8.82;3.17;;;;;;;17.52;66.54;99585.09;5045615;28;20037;-68
2022/08/22 00:11:58;;;;;;;11.07;3.40;;;;;;;17.50;66.88;99581.69;5049500;28;20612;-69
2022/08/22 00:14:32;;;;;;;;;;;;;;;17.37;67.49;99582.69;5049892;28;20049;-68
2022/08/22 00:17:05;;;;;;;5.50;2.80;;;;;;;17.28;68.04;99583.44;5048840;28;19925;-68
2022/08/22 00:19:47;;;;;;;6.97;3.03;;;;;;;17.24;68.22;99578.50;5049560;28;20049;-69
2022/08/22 00:22:20;;;;;;;9.18;3.60;;;;;;;17.16;68.39;99569.28;5050283;28;20060;-69
2022/08/22 00:24:55;;;;;;;7.43;2.80;;;;;;;17.10;68.62;99574.25;5050266;28;20053;-70
2022/08/22 00:27:25;;;;;;;7.63;2.97;;;;;;;17.11;67.93;99574.16;5050563;28;20052;-68
2022/08/22 00:29:57;;;;;;;9.13;3.63;;;;;;;17.11;67.72;99576.81;5051225;28;20311;-67
2022/08/22 00:32:26;;;;;;;7.07;3.05;;;;;;;17.07;67.49;99574.50;5051226;28;20055;-68
2022/08/22 00:34:58;;;;;;;9.57;3.15;;;;;;;17.06;67.62;99579.00;5052816;28;20045;-69
2022/08/22 00:37:30;;;;;;;7.50;3.40;;;;;;;17.04;68.22;99574.75;5055214;28;20084;-68
2022/08/22 00:40:03;;;;;;;9.52;2.95;;;;;;;17.02;68.06;99579.34;5055985;28;20139;-68
2022/08/22 00:42:52;;;;;;;7.18;2.85;;;;;;;16.95;68.06;99574.50;5055787;28;20523;-68
2022/08/22 00:45:58;;;;;;;6.28;3.15;;;;;;;16.89;68.47;99571.50;5055615;28;20045;-69
2022/08/22 00:48:59;;;;;;;9.48;3.45;;;;;;;16.81;68.95;99564.13;5055378;28;20389;-67
2022/08/22 00:52:07;;;;;;;7.10;3.17;;;;;;;16.74;68.65;99566.38;4989789;28;20570;-68
2022/08/22 00:55:03;;;;;;;7.57;3.65;;;;;;;16.67;69.43;99562.50;5055577;28;20049;-69
2022/08/22 00:57:49;;;;;;;4.90;2.78;;;;;;;16.65;69.14;99553.78;5054765;28;20055;-69
2022/08/22 01:00:19;;;;;;;9.10;4.10;;;;;;;16.62;69.00;99556.69;5053803;28;20052;-68
2022/08/22 01:03:23;;;;;;;5.63;2.50;;;;;;;16.63;69.45;99558.38;5055467;28;20048;-70
2022/08/22 01:06:04;;;;;;;8.93;3.38;;;;;;;16.63;69.04;99555.69;5048218;28;20063;-68
2022/08/22 01:08:45;;;;;;;11.15;3.85;;;;;;;16.64;69.02;99551.25;5054664;28;20041;-68
2022/08/22 01:11:27;;;;;;;5.07;2.80;;;;;;;16.64;69.00;99545.94;5035493;28;20056;-68
2022/08/22 01:14:13;;;;;;;7.90;3.22;;;;;;;16.63;69.21;99554.88;5035252;28;20042;-68
2022/08/22 01:17:02;;;;;;;11.30;3.53;;;;;;;16.59;68.66;99553.41;5034730;28;20045;-69
2022/08/22 01:20:10;;;;;;;5.38;3.00;;;;;;;16.59;68.75;99553.41;5035469;28;20140;-68
2022/08/22 01:23:12;;;;;;;9.00;4.00;;;;;;;16.59;68.58;99554.28;5035402;28;20061;-68
2022/08/22 01:26:38;;;;;;;8.38;3.25;;;;;;;16.59;68.92;99553.41;5035155;28;20054;-70
2022/08/22 01:29:51;;;;;;;8.10;3.38;;;;;;;16.59;68.57;99554.28;4996398;28;20419;-69
2022/08/22 01:33:01;;;;;;;9.57;3.05;;;;;;;16.58;68.89;99547.22;5055416;28;20056;-68
2022/08/22 01:35:50;;;;;;;11.30;4.25;;;;;;;16.52;68.72;99548.56;5055002;28;20139;-68
2022/08/22 01:38:41;;;;;;;6.05;3.33;;;;;;;16.53;68.77;99544.94;5053871;28;20051;-69
2022/08/22 01:41:35;;;;;;;9.98;3.28;;;;;;;16.59;68.52;99542.75;5054802;28;20049;-71
2022/08/22 01:44:13;;;;;;;7.75;3.00;;;;;;;16.65;67.86;99550.28;5054612;28;20075;-70
2022/08/22 01:46:53;;;;;;;7.15;3.00;;;;;;;16.69;67.43;99535.75;5051425;28;20060;-69
2022/08/22 01:49:26;;;;;;;7.55;3.92;;;;;;;16.71;67.71;99542.66;5051919;28;20051;-69
2022/08/22 01:51:59;;;;;;;10.32;3.50;;;;;;;16.70;67.22;99540.94;5052115;28;20053;-68
2022/08/22 01:54:36;;;;;;;8.88;3.42;;;;;;;16.68;67.28;99537.56;5054601;28;20040;-68
2022/08/22 01:57:06;;;;;;;13.20;3.97;;;;;;;16.67;67.37;99543.03;5051320;28;20048;-68
2022/08/22 01:59:38;;;;;;;8.45;3.85;;;;;;;16.68;67.36;99540.22;5051237;28;20049;-70
2022/08/22 02:02:20;;;;;;;8.18;4.45;;;;;;;16.70;67.11;99543.59;5044942;28;20059;-68
2022/08/22 02:04:55;;;;;;;4.47;2.83;;;;;;;16.72;67.30;99541.69;5051755;28;20052;-69
2022/08/22 02:07:27;;;;;;;10.20;2.78;;;;;;;16.74;67.47;99544.22;5051040;28;20140;-69
2022/08/22 02:10:07;;;;;;;6.38;3.22;;;;;;;16.76;67.43;99547.63;5051766;28;20047;-69
2022/08/22 02:12:42;;;;;;;7.70;3.13;;;;;;;16.80;66.96;99545.59;5052708;28;20144;-69
2022/08/22 02:15:18;;;;;;;9.73;4.20;;;;;;;16.81;66.78;99540.16;5051958;28;20059;-69
2022/08/22 02:17:58;;;;;;;7.50;4.15;;;;;;;16.73;67.34;99542.53;5051236;28;20143;-69
2022/08/22 02:20:28;;;;;;;11.35;3.88;;;;;;;16.70;67.65;99540.09;5051446;28;20684;-69
2022/08/22 02:23:07;;;;;;;10.18;3.50;;;;;;;16.67;67.44;99530.56;5051295;28;20139;-70
2022/08/22 02:25:48;;;;;;;8.57;4.05;;;;;;;16.61;67.99;99535.50;5051000;28;20059;-68
2022/08/22 02:28:22;;;;;;;9.13;3.60;;;;;;;16.40;69.02;99538.03;5050890;28;20049;-68
2022/08/22 02:30:55;;;;;;;9.20;3.55;;;;;;;16.28;69.96;99534.50;5051206;28;20053;-69
2022/08/22 02:33:34;;;;;;;9.07;4.05;;;;;;;16.21;69.67;99533.28;5051122;28;20140;-68
2022/08/22 02:36:06;;;;;;;7.32;3.53;;;;;;;16.21;70.02;99525.28;5050294;28;20049;-68
2022/08/22 02:38:38;;;;;;;11.77;3.63;;;;;;;16.21;69.82;99527.94;5051210;28;20426;-68
2022/08/22 02:41:14;;;;;;;9.98;3.75;;;;;;;16.19;69.75;99522.75;5051089;28;20052;-69
2022/08/22 02:43:51;;;;;;;10.50;3.60;;;;;;;16.15;69.55;99528.44;5053728;28;20049;-71
2022/08/22 02:46:26;;;;;;;8.02;3.45;;;;;;;16.13;69.70;99522.38;5050433;28;20140;-69
2022/08/22 02:49:03;;;;;;;11.63;4.57;;;;;;;16.10;70.21;99534.09;5051372;28;20055;-69
2022/08/22 02:51:39;;;;;;;5.88;2.90;;;;;;;16.01;70.65;99532.13;5050979;28;20053;-71
2022/08/22 02:54:17;;;;;;;11.25;3.67;;;;;;;15.94;70.78;99531.75;5050829;28;20051;-70
2022/08/22 02:56:49;;;;;;;6.50;3.47;;;;;;;15.93;70.71;99524.75;5043995;28;20057;-69
2022/08/22 02:59:31;;;;;;;7.03;3.25;;;;;;;15.93;70.65;99523.91;5050562;28;20049;-70
2022/08/22 03:02:18;;;;;;;11.57;3.78;;;;;;;15.85;71.14;99514.69;5050603;28;20063;-69
2022/08/22 03:04:51;;;;;;;9.70;3.63;;;;;;;15.73;71.78;99514.78;5050317;28;20068;-69
2022/08/22 03:07:30;;;;;;;10.35;3.92;;;;;;;15.61;72.17;99511.19;5049459;28;20041;-69
2022/08/22 03:10:10;;;;;;;10.18;4.65;;;;;;;15.45;73.06;99511.47;5050374;28;20060;-69
2022/08/22 03:12:44;;;;;;;10.25;3.72;;;;;;;15.39;73.24;99514.59;5050365;28;20064;-69
2022/08/22 03:15:18;;;;;;;8.50;3.53;;;;;;;15.31;73.84;99512.50;5050521;28;20741;-69
2022/08/22 03:17:52;;;;;;;9.70;4.05;;;;;;;15.24;74.08;99514.75;5050441;28;20049;-70
2022/08/22 03:20:37;;;;;;;9.07;4.60;;;;;;;15.20;74.34;99505.28;5050329;28;20482;-70
2022/08/22 03:23:09;;;;;;;9.50;4.90;;;;;;;15.13;74.72;99508.50;5050236;28;20049;-69
2022/08/22 03:25:45;;;;;;;6.93;3.70;;;;;;;15.08;75.04;99508.84;5050195;28;20053;-69
2022/08/22 03:28:15;;;;;;;11.27;4.20;;;;;;;15.08;74.90;99511.50;5049493;28;20052;-69
2022/08/22 03:30:45;;;;;;;8.63;3.75;;;;;;;15.06;75.35;99505.44;5049939;28;20412;-69
2022/08/22 03:33:18;;;;;;;8.70;4.43;;;;;;;15.14;74.83;99513.72;5050006;28;20051;-70
2022/08/22 03:35:58;;;;;;;9.45;3.97;;;;;;;15.18;74.51;99509.84;5051571;28;21031;-70
2022/08/22 03:38:29;;;;;;;11.02;4.53;;;;;;;15.21;74.38;99504.34;5052720;28;20045;-72
2022/08/22 03:41:17;;;;;;;7.63;3.78;;;;;;;15.24;74.20;99506.78;5052805;28;20041;-73
2022/08/22 03:44:05;;;;;;;7.05;3.78;;;;;;;15.24;74.18;99500.63;5037084;28;20049;-69
2022/08/22 03:46:53;;;;;;;11.20;3.88;;;;;;;15.18;74.88;99496.59;5051516;28;20049;-69
2022/08/22 03:49:57;;;;;;;7.45;3.72;;;;;;;15.11;74.89;99495.34;5051757;28;20057;-70
2022/08/22 03:53:06;;;;;;;14.70;5.03;;;;;;;15.05;75.15;99493.13;5034737;28;20120;-69
2022/08/22 03:55:47;;;;;;;6.80;4.32;;;;;;;15.09;74.72;99491.97;5049095;28;20053;-69
2022/08/22 03:58:48;;;;;;;12.40;4.55;;;;;;;15.13;74.68;99495.22;5050307;28;20049;-69
2022/08/22 04:01:45;;;;;;;8.50;4.15;;;;;;;15.03;75.18;99497.69;5049612;28;20545;-69
2022/08/22 04:04:43;;;;;;;7.75;3.42;;;;;;;14.94;75.45;99493.06;5049723;28;20053;-70
2022/08/22 04:07:45;;;;;;;10.90;4.32;;;;;;;14.84;75.81;99492.91;5049008;28;20140;-70
2022/08/22 04:10:36;;;;;;;9.30;4.05;;;;;;;14.80;76.01;99491.41;5049113;28;20056;-67
2022/08/22 04:13:22;;;;;;;10.43;3.97;;;;;;;14.78;76.17;99494.16;5049432;28;20053;-68
2022/08/22 04:16:14;;;;;;;7.80;3.92;;;;;;;14.77;76.46;99492.47;5048686;28;20051;-70
2022/08/22 04:19:11;;;;;;;10.85;4.40;;;;;;;14.76;76.65;99495.22;5049350;28;20052;-70
2022/08/22 04:21:54;;;;;;;12.07;5.70;;;;;;;14.79;76.66;99492.34;5049233;28;20427;-70
2022/08/22 04:24:45;;;;;;;10.20;4.22;;;;;;;14.82;76.54;99494.81;5049683;28;20408;-70
2022/08/22 04:27:20;;;;;;;11.68;4.60;;;;;;;14.78;76.34;99494.16;5048094;28;20419;-68
2022/08/22 04:29:52;;;;;;;11.27;4.68;;;;;;;14.67;76.82;99496.75;5049221;28;20055;-68
2022/08/22 04:32:29;;;;;;;7.93;4.32;;;;;;;14.64;77.14;99491.63;5048928;28;20504;-70
2022/08/22 04:35:04;;;;;;;7.80;4.50;;;;;;;14.63;77.04;99497.91;5048971;28;20052;-70
2022/08/22 04:37:38;;;;;;;9.43;4.88;;;;;;;14.65;77.20;99501.31;5048993;28;20055;-69
2022/08/22 04:40:14;;;;;;;10.88;5.30;;;;;;;14.68;77.06;99490.47;5051928;28;20055;-69
2022/08/22 04:42:46;;;;;;;11.02;4.65;;;;;;;14.62;77.34;99496.22;5049689;28;20086;-71
2022/08/22 04:45:18;;;;;;;11.93;4.28;;;;;;;14.62;77.49;99500.66;5049696;28;20056;-70
2022/08/22 04:47:51;;;;;;;12.50;5.13;;;;;;;14.65;77.31;99506.59;5048507;28;20148;-70
2022/08/22 04:50:24;;;;;;;8.50;4.10;;;;;;;14.65;77.18;99506.59;5049148;28;20453;-69
2022/08/22 04:53:04;;;;;;;6.07;4.22;;;;;;;14.63;77.30;99513.81;5049366;28;20052;-69
2022/08/22 04:55:36;;;;;;;16.50;5.30;;;;;;;14.59;77.67;99512.34;5049525;28;20049;-70
2022/08/22 04:58:16;;;;;;;7.90;4.70;;;;;;;14.49;78.10;99508.59;5049244;28;20059;-70
2022/08/22 05:00:54;;;;;;;5.80;4.80;;;;;;;14.44;77.92;99506.25;5049222;28;20055;-70
2022/08/22 05:03:27;;;;;;;8.57;4.28;;;;;;;14.44;78.30;99513.38;5049193;28;20131;-72
2022/08/22 05:05:57;;;;;;;11.32;4.82;;;;;;;14.43;78.24;99512.53;5048485;28;20056;-69
2022/08/22 05:08:29;;;;;;;7.10;4.43;;;;;;;14.42;78.91;99512.63;5048942;28;20059;-68
2022/08/22 05:10:58;;;;;;;9.13;4.95;;;;;;;14.47;79.13;99513.16;5048894;28;20126;-69
2022/08/22 05:13:29;;;;;;;9.00;4.68;;;;;;;14.53;78.46;99518.94;5048855;28;20127;-69
2022/08/22 05:16:01;;;;;;;7.03;4.65;;;;;;;14.56;78.74;99521.34;5048181;28;20060;-70
2022/08/22 05:18:35;;;;;;;10.10;5.03;;;;;;;14.60;78.28;99527.31;5048760;28;20049;-69
2022/08/22 05:21:05;;;;;;;12.23;6.60;;;;;;;14.60;78.35;99525.50;5049084;28;20055;-70
2022/08/22 05:23:37;;;;;;;10.70;5.30;;;;;;;14.63;78.16;99527.09;5052517;28;20135;-70
2022/08/22 05:26:06;;;;;;;13.45;6.55;;;;;;;14.60;78.35;99528.16;5051705;28;20389;-70
2022/08/22 05:28:37;;;;;;;11.43;5.65;;;;;;;14.58;78.45;99530.06;5051933;28;20049;-70
2022/08/22 05:31:08;;;;;;;8.95;5.07;;;;;;;14.57;78.44;99539.00;5052451;28;20045;-71
2022/08/22 05:33:40;;;;;;;15.05;6.82;;;;;;;14.53;79.05;99528.66;5052226;28;20048;-71
2022/08/22 05:36:10;;;;;;;9.05;4.28;;;;;;;14.53;78.87;99534.84;5051754;28;20053;-70
2022/08/22 05:38:41;;;;;;;9.85;5.38;;;;;;;14.52;79.18;99529.59;5052654;28;20144;-69
2022/08/22 05:41:10;;;;;;;8.30;5.10;;;;;;;14.52;78.72;99533.13;5052474;28;20098;-70
2022/08/22 05:43:40;;;;;;;10.27;5.63;;;;;;;14.56;78.46;99533.78;5052532;28;20052;-69
2022/08/22 05:46:14;;;;;;;9.80;4.70;;;;;;;14.54;78.74;99530.38;5051505;28;20154;-69
2022/08/22 05:48:48;;;;;;;12.50;6.40;;;;;;;14.59;79.17;99534.44;5052523;28;20060;-68
2022/08/22 05:51:20;;;;;;;16.13;6.43;;;;;;;14.65;79.02;99537.59;5052115;28;20045;-69
2022/08/22 05:53:51;;;;;;;11.40;6.90;;;;;;;14.70;79.13;99527.50;5051972;28;20053;-71
2022/08/22 05:56:25;;;;;;;11.77;5.97;;;;;;;14.76;78.30;99535.03;5051778;28;20048;-69
2022/08/22 05:58:54;;;;;;;9.23;5.03;;;;;;;14.77;78.43;99523.47;5062424;28;20055;-69
2022/08/22 06:01:28;;;;;;;10.32;5.03;;;;;;;14.82;78.44;99521.34;5071748;28;20045;-69
2022/08/22 06:04:05;;;;;;;8.32;4.57;;;;;;;14.93;78.16;99533.84;5058360;28;20588;-69
2022/08/22 06:06:37;;;;;;;8.02;5.40;;;;;;;15.03;77.64;99529.56;5051181;28;20087;-69
2022/08/22 06:09:12;;;;;;;9.95;5.75;;;;;;;15.15;77.52;99536.66;5031878;28;20115;-68
2022/08/22 06:11:42;;;;;;;8.93;4.32;;;;;;;15.31;76.90;99546.16;5031913;28;20394;-69
2022/08/22 06:14:22;;;;;;;8.27;5.40;;;;;;;15.44;76.32;99536.34;5031930;28;20053;-67
2022/08/22 06:16:53;;;;;;;16.13;5.82;;;;;;;15.58;75.67;99543.28;5030913;28;20049;-69
2022/08/22 06:19:22;;;;;;;8.82;5.80;;;;;;;15.67;75.38;99537.28;5031704;28;20143;-68
2022/08/22 06:21:51;;;;;;;11.10;5.40;;;;;;;15.80;74.80;99534.59;5031632;28;20099;-68
2022/08/22 06:24:23;;;;;;;11.55;6.75;;;;;;;15.97;74.69;99539.47;5031561;28;20136;-68
2022/08/22 06:26:53;;;;;;;13.82;5.57;;;;;;;16.15;74.52;99539.06;5031385;28;20053;-69
2022/08/22 06:29:35;;;;;;;24.35;7.60;;;;;;;16.32;73.58;99541.28;5049848;28;20412;-69
2022/08/22 06:32:10;;;;;;;11.15;5.03;;;;;;;16.48;73.32;99540.94;5050513;28;20102;-69
2022/08/22 06:34:42;;;;;;;22.67;9.18;;;;;;;16.65;72.28;99544.94;5051345;28;20140;-68
2022/08/22 06:37:13;;;;;;;14.13;6.18;;;;;;;16.83;71.95;99545.34;5050646;28;20059;-68
2022/08/22 06:39:43;;;;;;;14.63;6.53;;;;;;;16.97;70.46;99542.44;5053726;28;20048;-70
2022/08/22 06:42:12;;;;;;;12.95;7.78;;;;;;;17.08;70.05;99542.44;5050945;28;20044;-69
2022/08/22 06:44:43;;;;;;;9.95;6.28;;;;;;;17.25;70.27;99542.88;5051615;28;20119;-70
2022/08/22 06:47:14;;;;;;;14.05;7.95;;;;;;;17.39;69.32;99539.94;5050242;28;20080;-70
2022/08/22 06:49:45;;;;;;;12.02;6.35;;;;;;;17.56;69.07;99541.22;5051023;28;20669;-69
2022/08/22 06:52:17;;;;;;;12.95;7.70;;;;;;;17.67;68.68;99541.19;5052221;28;20058;-70
2022/08/22 06:54:48;;;;;;;13.30;6.55;;;;;;;17.82;68.19;99536.44;5053158;28;20067;-70
2022/08/22 06:57:29;;;;;;;16.05;6.90;;;;;;;17.96;67.94;99535.28;5055884;28;20045;-68
2022/08/22 06:59:57;;;;;;;14.85;8.00;;;;;;;18.08;66.80;99531.56;5053919;28;20205;-68
2022/08/22 07:02:28;;;;;;;18.70;7.88;;;;;;;18.22;67.02;99536.59;5053682;28;20049;-69
2022/08/22 07:04:57;;;;;;;11.88;6.72;;;;;;;18.34;66.38;99531.19;5054291;28;20080;-69
2022/08/22 07:07:26;;;;;;;15.13;7.72;;;;;;;18.47;66.15;99537.16;5051844;28;20049;-68
2022/08/22 07:09:56;;;;;;;11.60;6.43;;;;;;;18.60;65.87;99539.59;5052127;28;20056;-68
2022/08/22 07:12:29;;;;;;;18.63;8.32;;;;;;;18.76;65.23;99544.50;5051422;28;20055;-68
2022/08/22 07:15:00;;;;;;;16.95;6.70;;;;;;;18.84;64.60;99544.69;5051632;28;20447;-70
2022/08/22 07:17:29;;;;;;;12.18;5.97;;;;;;;18.92;64.56;99544.84;5050082;28;20049;-69
2022/08/22 07:20:02;;;;;;;18.38;7.70;;;;;;;18.99;65.57;99548.66;5050786;28;20049;-69
2022/08/22 07:22:32;;;;;;;12.65;6.40;;;;;;;19.11;64.02;99551.25;5050796;28;20132;-69
2022/08/22 07:25:02;;;;;;;7.43;4.47;;;;;;;19.22;64.28;99548.44;5050666;28;20053;-69
2022/08/22 07:27:46;;;;;;;13.00;5.20;;;;;;;19.33;63.83;99547.50;5049609;28;20045;-67
2022/08/22 07:30:16;;;;;;;10.07;5.25;;;;;;;19.43;64.17;99546.53;5050423;28;20049;-69
2022/08/22 07:32:52;;;;;;;17.58;5.97;;;;;;;19.50;62.96;99546.84;5050586;28;20507;-70
2022/08/22 07:35:24;;;;;;;23.25;7.70;;;;;;;19.74;68.68;99549.16;5050796;28;20057;-63
2022/08/22 07:38:03;;;;;;;13.68;5.72;;;;;;;19.94;62.39;99550.84;5047415;28;20132;-62
2022/08/22 07:40:38;;;;;;;22.15;6.90;;;;;;;20.04;60.87;99550.84;5057365;28;20080;-63
2022/08/22 07:43:16;;;;;;;21.27;7.15;;;;;;;20.02;62.33;99551.97;5053770;28;20048;-64
2022/08/22 07:45:49;;;;;;;14.48;5.40;;;;;;;20.09;61.96;99553.91;5048327;28;20148;-62
2022/08/22 07:48:23;;;;;;;11.35;5.35;;;;;;;20.14;61.10;99545.47;5048307;28;20063;-64
2022/08/22 07:50:59;;;;;;;10.77;4.80;;;;;;;20.27;61.62;99548.69;5048494;28;20040;-63
2022/08/22 07:53:34;;;;;;;10.13;5.63;;;;;;;20.32;60.26;99559.81;5047104;28;20056;-63
2022/08/22 07:56:02;;;;;;;;;;;;;;;20.25;60.36;99556.00;5048813;28;20427;-64
2022/08/22 07:58:32;;;;;;;8.80;4.80;;;;;;;20.29;60.54;99559.25;5049616;28;19990;-63
2022/08/22 08:01:00;;;;;;;11.50;5.28;;;;;;;20.35;59.85;99562.22;5050086;28;20084;-62
2022/08/22 08:03:30;;;;;;;8.80;5.20;;;;;;;20.37;59.96;99560.22;5049848;28;20139;-64
2022/08/22 08:06:01;;;;;;;14.20;5.78;;;;;;;20.38;60.42;99566.44;5064479;28;20147;-65
2022/08/22 08:08:34;;;;;;;15.32;5.35;;;;;;;20.46;60.25;99569.22;5069835;28;20052;-61
2022/08/22 08:11:03;;;;;;;19.35;5.97;;;;;;;20.52;60.36;99570.47;5069842;28;20419;-65
2022/08/22 08:13:35;;;;;;;8.75;5.18;;;;;;;20.55;59.92;99559.50;5069109;28;20048;-65
2022/08/22 08:16:06;;;;;;;13.18;6.45;;;;;;;20.59;59.79;99560.91;5069473;28;20054;-66
2022/08/22 08:18:35;;;;;;;16.13;6.93;;;;;;;20.62;59.72;99552.56;5069496;28;20588;-61
2022/08/22 08:21:06;;;;;;;17.90;6.38;;;;;;;20.63;59.51;99548.09;5069499;28;20809;-64
2022/08/22 08:23:39;;;;;;;13.00;5.40;;;;;;;20.75;58.60;99545.06;5069350;28;20462;-62
2022/08/22 08:26:11;;;;;;;16.23;5.38;;;;;;;20.90;58.69;99555.31;5068585;28;20659;-64
2022/08/22 08:28:40;;;;;;;10.00;5.28;;;;;;;21.08;57.58;99547.31;5056136;28;20053;-62
2022/08/22 08:31:16;;;;;;;11.93;4.95;;;;;;;21.16;57.18;99537.53;5051931;28;20052;-64
2022/08/22 08:33:47;;;;;;;9.43;4.57;;;;;;;21.29;56.60;99534.53;5048739;28;20053;-65
2022/08/22 08:36:36;;;;;;;11.07;4.20;;;;;;;21.48;56.53;99544.28;5048580;28;20155;-61
2022/08/22 08:39:12;;;;;;;10.50;4.75;;;;;;;21.56;55.83;99536.34;5048819;28;20500;-62
2022/08/22 08:42:17;;;;;;;13.20;5.22;;;;;;;21.53;55.65;99528.56;5049104;28;20657;-64
2022/08/22 08:45:18;;;;;;;15.60;4.53;;;;;;;21.63;55.34;99537.44;5048547;28;20054;-64
2022/08/22 08:48:04;;;;;;;11.52;6.95;;;;;;;21.74;55.22;99525.59;5048277;28;20504;-63
2022/08/22 08:50:56;;;;;;;12.65;6.03;;;;;;;21.82;54.60;99538.25;5049387;28;20048;-62
2022/08/22 08:53:40;;;;;;;8.88;5.50;;;;;;;21.80;53.93;99535.72;5049144;28;20143;-64
2022/08/22 08:56:16;;;;;;;15.00;7.53;;;;;;;21.86;54.48;99529.75;5050600;28;20087;-60
2022/08/22 08:58:54;;;;;;;9.82;5.25;;;;;;;22.12;53.14;99536.16;5053271;28;20049;-59
2022/08/22 09:01:49;;;;;;;12.07;5.03;;;;;;;22.38;51.90;99526.31;5052994;28;20041;-64
2022/08/22 09:04:38;;;;;;;13.75;4.82;;;;;;;22.61;52.10;99534.66;5052769;28;20049;-62
2022/08/22 09:07:26;;;;;;;15.25;6.75;;;;;;;22.72;51.36;99536.25;5052415;28;20053;-63
2022/08/22 09:10:17;;;;;;;10.10;5.40;;;;;;;22.81;50.12;99532.59;5052681;28;20519;-61
2022/08/22 09:13:07;;;;;;;15.23;5.55;;;;;;;23.04;50.18;99527.53;5052996;28;20041;-64
2022/08/22 09:15:48;;;;;;;6.15;4.07;;;;;;;23.34;49.81;99522.59;5052414;28;20427;-64
2022/08/22 09:18:51;;;;;;;17.90;5.82;;;;;;;23.35;48.18;99521.56;5052105;28;20934;-65
2022/08/22 09:21:42;;;;;;;14.82;5.25;;;;;;;23.31;48.33;99518.38;5053143;28;20049;-65
2022/08/22 09:24:37;;;;;;;14.73;6.75;;;;;;;23.41;48.60;99515.53;5053475;28;20131;-61
2022/08/22 09:27:13;;;;;;;11.35;4.72;;;;;;;23.47;48.48;99508.66;5049279;28;20053;-59
2022/08/22 09:29:47;;;;;;;17.02;5.13;;;;;;;24.04;47.51;99511.41;5051273;28;20067;-64
2022/08/22 09:32:20;;;;;;;12.85;4.97;;;;;;;24.25;46.20;99512.75;5051974;28;20060;-62
2022/08/22 09:35:00;;;;;;;13.02;4.85;;;;;;;24.53;45.53;99508.66;5051598;28;20421;-63
2022/08/22 09:37:38;;;;;;;10.90;4.82;;;;;;;24.70;45.11;99509.47;5051123;28;20076;-61
2022/08/22 09:40:12;;;;;;;13.73;4.75;;;;;;;24.64;44.56;99505.63;5037287;28;20052;-62
2022/08/22 09:42:49;;;;;;;8.98;4.18;;;;;;;24.84;44.55;99505.22;5051648;28;20048;-63
2022/08/22 09:45:41;;;;;;;10.55;4.47;;;;;;;25.35;43.59;99504.81;5052530;28;20048;-64
2022/08/22 09:48:24;;;;;;;13.32;4.38;;;;;;;25.11;43.73;99501.22;5046433;28;20564;-65
2022/08/22 09:50:59;;;;;;;15.20;6.60;;;;;;;24.92;43.77;99504.34;5053033;28;20045;-57
2022/08/22 09:53:44;;;;;;;9.93;4.70;;;;;;;24.47;44.06;99504.00;5051332;28;20049;-57
2022/08/22 09:56:19;;;;;;;16.17;4.10;;;;;;;24.50;45.08;99500.09;5036896;28;20124;-58
2022/08/22 09:58:59;;;;;;;12.52;4.18;;;;;;;24.40;44.92;99502.97;5051433;28;20049;-58
2022/08/22 10:01:30;;;;;;;10.48;4.28;;;;;;;24.26;45.08;99503.66;5051268;28;20604;-58
2022/08/22 10:04:34;;;;;;;10.48;3.70;;;;;;;24.58;44.51;99500.06;5035028;28;20053;-60
2022/08/22 10:07:07;;;;;;;9.32;2.80;;;;;;;24.77;44.45;99494.28;5039907;28;20076;-52
2022/08/22 10:09:44;;;;;;;11.52;3.20;;;;;;;24.61;44.02;99487.09;5051618;28;20059;-53
2022/08/22 10:12:18;;;;;;;10.30;4.00;;;;;;;24.77;44.02;99491.59;5051321;28;20045;-59
2022/08/22 10:15:09;;;;;;;8.02;3.20;;;;;;;24.93;43.72;99490.66;5052588;28;20079;-55
2022/08/22 10:17:40;;;;;;;5.65;2.97;;;;;;;25.25;42.17;99486.16;5050661;28;20045;-57
2022/08/22 10:20:21;;;;;;;10.88;4.60;;;;;;;25.47;41.22;99479.09;5051665;28;20049;-56
2022/08/22 10:22:59;;;;;;;11.13;3.55;;;;;;;25.54;41.07;99471.97;5050865;28;20048;-59
2022/08/22 10:25:36;;;;;;;10.00;3.45;;;;;;;25.48;41.01;99464.59;5052107;28;20053;-54
2022/08/22 10:28:24;;;;;;;8.35;3.25;;;;;;;25.66;40.26;99480.50;5048202;28;20048;-50
2022/08/22 10:31:10;;;;;;;9.48;3.10;;;;;;;26.14;39.17;99473.03;5050841;28;20522;-57
2022/08/22 10:33:43;;;;;;;6.88;2.78;;;;;;;27.81;36.20;99465.97;5050512;28;20051;-59
2022/08/22 10:36:13;;;;;;;11.48;3.95;;;;;;;27.80;36.51;99463.44;5059208;28;20056;-59
2022/08/22 10:38:45;;;;;;;11.55;3.03;;;;;;;27.72;36.10;99459.00;5050444;28;20110;-50
2022/08/22 10:41:23;;;;;;;9.32;3.58;;;;;;;27.15;37.46;99458.00;5050245;28;20434;-54
2022/08/22 10:43:55;;;;;;;10.25;3.25;;;;;;;26.99;36.72;99450.09;5050827;28;20436;-56
2022/08/22 10:46:29;;;;;;;7.57;3.10;;;;;;;26.88;37.58;99459.53;5050085;28;20084;-64
2022/08/22 10:48:59;;;;;;;9.45;3.70;;;;;;;26.88;37.13;99450.59;5050505;28;20106;-68
2022/08/22 10:51:36;;;;;;;8.25;3.70;;;;;;;26.81;36.90;99452.38;5050582;28;20060;-68
2022/08/22 10:54:14;;;;;;;8.80;3.92;;;;;;;26.54;36.98;99455.56;5036244;28;20041;-68
2022/08/22 10:56:48;;;;;;;7.13;3.65;;;;;;;26.63;36.97;99453.59;5049916;28;20156;-68
2022/08/22 10:59:39;;;;;;;7.97;3.30;;;;;;;26.75;37.27;99453.94;5050703;28;20049;-69
2022/08/22 11:02:36;;;;;;;10.60;3.55;;;;;;;26.55;37.27;99459.09;5025192;28;20052;-68
2022/08/22 11:05:37;;;;;;;12.07;3.22;;;;;;;26.83;37.30;99453.88;5048144;28;20080;-67
2022/08/22 11:08:17;;;;;;;7.05;3.38;;;;;;;27.04;36.89;99447.66;5034587;28;20114;-69
2022/08/22 11:11:01;;;;;;;9.10;3.92;;;;;;;27.01;36.81;99441.78;5049898;28;20060;-69
2022/08/22 11:13:38;;;;;;;7.20;3.17;;;;;;;26.82;37.19;99437.81;5051064;28;20126;-67
2022/08/22 11:16:17;;;;;;;7.68;2.72;;;;;;;26.84;37.24;99433.88;5035010;28;20647;-69
2022/08/22 11:19:13;;;;;;;8.05;3.30;;;;;;;26.50;37.37;99439.84;5049631;28;20049;-69
2022/08/22 11:21:48;;;;;;;10.35;3.22;;;;;;;26.47;37.49;99438.38;5049407;28;20496;-69
2022/08/22 11:24:48;;;;;;;11.50;3.25;;;;;;;26.40;37.53;99439.31;5049564;28;20048;-68
2022/08/22 11:27:30;;;;;;;9.23;3.50;;;;;;;26.38;37.27;99436.78;5042883;28;20054;-69
2022/08/22 11:30:02;;;;;;;9.82;2.92;;;;;;;26.51;36.98;99439.69;5033063;28;20045;-69
2022/08/22 11:32:36;;;;;;;9.30;3.45;;;;;;;26.77;36.01;99432.97;5049488;28;20079;-69
2022/08/22 11:35:08;;;;;;;11.60;3.70;;;;;;;26.68;37.17;99434.94;5049409;28;20057;-68
2022/08/22 11:37:46;;;;;;;10.70;3.30;;;;;;;26.81;37.74;99428.88;5048742;28;20049;-69
2022/08/22 11:40:24;;;;;;;11.10;4.28;;;;;;;26.66;36.98;99431.59;5049360;28;20048;-68
2022/08/22 11:43:01;;;;;;;12.35;3.60;;;;;;;26.61;37.34;99419.66;5048882;28;20056;-69
2022/08/22 11:45:34;;;;;;;10.73;6.55;;;;;;;26.62;36.78;99429.44;5049235;28;20053;-68
2022/08/22 11:48:09;;;;;;;12.35;5.50;;;;;;;26.56;36.98;99420.22;5033006;28;20500;-68
2022/08/22 11:50:43;;;;;;;12.07;6.15;;;;;;;26.55;36.76;99415.84;5048902;28;20496;-69
2022/08/22 11:53:26;;;;;;;10.77;3.60;;;;;;;26.75;36.79;99416.09;5049218;28;20057;-69
2022/08/22 11:56:07;;;;;;;9.10;3.33;;;;;;;26.90;35.96;99416.03;5048698;28;20128;-70
2022/08/22 11:58:48;;;;;;;9.50;3.15;;;;;;;26.93;36.54;99416.53;5048968;28;20140;-68
2022/08/22 12:01:20;;;;;;;9.57;3.90;;;;;;;26.95;36.31;99411.75;5048815;28;20053;-68
2022/08/22 12:03:57;;;;;;;9.88;3.63;;;;;;;26.83;36.21;99409.72;5048949;28;20044;-67
2022/08/22 12:06:51;;;;;;;8.00;3.42;;;;;;;26.74;36.63;99412.53;5048410;28;20076;-71
2022/08/22 12:09:28;;;;;;;7.93;2.65;;;;;;;26.63;36.61;99414.88;5048911;28;20057;-68
2022/08/22 12:12:10;;;;;;;11.05;3.38;;;;;;;26.69;36.80;99408.75;5032293;28;20673;-69
2022/08/22 12:14:41;;;;;;;6.53;2.85;;;;;;;26.83;37.17;99404.31;5051698;28;20137;-69
2022/08/22 12:17:18;;;;;;;12.23;3.40;;;;;;;27.03;36.42;99394.56;5048065;28;20135;-68
2022/08/22 12:19:59;;;;;;;9.68;3.47;;;;;;;27.05;36.28;99395.22;5048580;28;20141;-70
2022/08/22 12:22:57;;;;;;;4.80;2.58;;;;;;;27.10;36.23;99389.22;5048231;28;20067;-70